Petawawa Airport
CYWA : now visible

Airfield :











YOU CAN JOIN US ON...

 
LOGIN :

Register | Disclaimer

   EN    FR    IT 

 









Legend :    VFR   Marginal VFR   IFR   Intensive IFR   Very Intensive IFR
Visi :
Ceiling :
>= 8 km
>= 3000ft
5 to 8 km
1000 to 3000 ft
1500m to 5 km
500 to 1000 ft
800 to 1500m
200 to 500 ft
< 800m
< 200 ft
Symbols :   Thunderstorms  Fog  Heavy snow  Heavy precipitations  Wind > 20 kt






- Airport Elevation : 427 ft
- IATA code : YWA


CYWA - Petawawa

CURRENT METAR :
  • 050000Z AUTO ///// 9SM CLR 24/11 A2995 RMK SLP143

EXPIRED METARs :
  • 042300Z AUTO ///// 9SM FEW095 26/10 A2995 RMK SLP144
  • 042200Z AUTO ///// 9SM FEW095 27/11 A2995 RMK SLP143

TAF TAF CYWA
Valid from the 05 at 00:00 until the 06 at 00:00 UTC


042330Z 0500/0524 02005KT P6SM SCT090
FM050200 VRB03KT P6SM BKN040 BKN200
TEMPO 0502/0507 6SM -SHRA BR BKN030 BKN150
FM051400 32008KT P6SM SCT030 BKN250 RMK FCST BASED ON AUTO OBS. FCST BASED ON OBS OBTAINED FM OTHER SOURCES. NXT FCST BY 050600Z
CZYZ FIR / North America



MET'MAP, your aeronautical weather chart ! - Copyright ORBIFLY December 2007 - Disclaimer

ORBIFLY MET'MAP TEAM :

Programming & Development : Alexandra Zaïnal
Concept & original design : Baudouin d'Aumeries
Assistance for programming : Marc-Olivier Méhu
Technical & hardware support : Manuel Goepfert

Contact : metmap@orbifly.com




SOURCES & CREDITS :

   NOAA       Earth
Advisory